aviador You're here:

KPWA Decoded Metar

OKLA CITY/WILEY in OK, USA
Report Time2018-01-22 19:53:00
UTC Time2018-01-22 20:03:25
Flight Rules vfr VFR
Wind320° at 24 Gusting to 34 kt
W.Decomp.*RWY 31: 23.9 kt HW 2.1 kt RCW
RWY 35: 19.7 kt HW 13.8 kt LCW
W.Rank320° ranks 18
Current wind is above 320° avg. (8.7)
Visibility9999 m
Phenomena:N/A
Clouds:Broken 050 Hf
Overcast 060 Hf
Expected CloudBase > 4,800 ft AGL from Temp-Dew spread
Ceiling5,000 ft
Temp09°C (ISA -3)
Dew Point-3°C (43% RH)
AAT-2.0°C
QNH1012 hPa
Density Alt1,001 ft
Elevation1,302 ft
Report Wrong Elevation
Raw Report
KPWA 221953Z 32024G34KT 10SM BKN050 OVC060 09/M03 A2989 RMK AO2 PK
WND 32039/1922 SLP123 T00941033=

Extra information for KPWA:More info

Metar Taf Metar & Taf Last 4 Metars F.Rules Stats Wind Profile Meteogram Temp Stats Airport Information Weather charts Add Link Nearby VenuesMetar ALERT Operation Metar Decoded Social comments

AIRNAV info for KPWA